METAR-berichten van nabijgelegen luchthavens

 

EHBK - Maastricht-Aachen Airport
Afstand tot station: WZW 9km
Bijgewerkt: 21-10-2018 14:55
Helder
Helder
 Wind vanuit varieert
Wind: varieert 4 km/h
Temperatuur: 16°C
Dauwpunt: 6°C
Vochtigheid: 52%
Luchtdruk: 1027 hPa
Bewolking: Helder
Zicht: 10 km
2018/10/21 12:55 EHBK 211255Z AUTO VRB02KT 9999 NCD 16/06 Q1027 NOSIG
ETNG - NATO Air Base Geilenkirchen
Afstand tot station: ONO 11km
Bijgewerkt: 19-10-2018 20:50
NIET actueel
Meestal bewolkt
Meestal bewolkt
 Wind vanuit NNO
Wind: NNO 4 km/h
Temperatuur: 13°C
Dauwpunt: 9°C
Vochtigheid: 77%
Luchtdruk: 1025 hPa
Bewolking: Meestal bewolkt
Zicht: 10 km
Details bewolking: Meestal bewolkt 1219 m
2018/10/19 18:50 ETNG 191850Z 03002KT 9999 BKN040 13/09 Q1025 NOSIG